Time;durP1;ratioP1;P1;durP2;ratioP2;P2;SDS_P1;SDS_P2;PMS_P1;PMS_P2;Temp;Humidity;BMP_temperature;BMP_pressure;BME280_temperature;BME280_humidity;BME280_pressure;Samples;Min_cycle;Max_cycle;Signal;HPM_P1;HPM_P2
2022/08/16 00:02:01;;;;;;;14.40;12.40;;;;;;;20.76;84.76;99831.45;84801;1328;25630;-72
2022/08/16 00:04:10;;;;;;;15.90;12.40;;;;;;;20.80;84.97;99833.23;84818;1328;22927;-72
2022/08/16 00:06:19;;;;;;;13.60;12.30;;;;;;;20.82;85.01;99830.34;84834;1325;22720;-71
2022/08/16 00:08:27;;;;;;;15.10;12.10;;;;;;;20.83;84.97;99827.58;84775;1321;22581;-72
2022/08/16 00:10:36;;;;;;;14.10;12.90;;;;;;;20.85;85.18;99829.02;84763;1318;22534;-69
2022/08/16 00:12:45;;;;;;;13.80;12.40;;;;;;;20.84;85.04;99832.97;84768;1328;25901;-72
2022/08/16 00:14:54;;;;;;;11.30;10.30;;;;;;;20.83;84.86;99834.11;84779;1325;22872;-72
2022/08/16 00:17:03;;;;;;;13.60;12.00;;;;;;;20.81;84.74;99831.16;84783;1324;22597;-73
2022/08/16 00:19:12;;;;;;;13.70;12.30;;;;;;;20.77;84.83;99833.86;84802;1321;22924;-72
2022/08/16 00:21:21;;;;;;;13.40;11.70;;;;;;;20.72;84.85;99833.93;84783;1325;23979;-72
2022/08/16 00:23:30;;;;;;;11.70;10.60;;;;;;;20.68;84.95;99836.35;84775;1326;22598;-72
2022/08/16 00:25:39;;;;;;;12.60;10.90;;;;;;;20.66;85.21;99835.82;84806;1321;23919;-71
2022/08/16 00:27:47;;;;;;;12.90;11.60;;;;;;;20.64;85.25;99837.30;84777;1321;22841;-72
2022/08/16 00:29:56;;;;;;;12.10;10.90;;;;;;;20.62;85.42;99839.58;84792;1326;22863;-71
2022/08/16 00:32:06;;;;;;;12.70;11.40;;;;;;;20.60;85.66;99842.91;84783;1328;26585;-72
2022/08/16 00:34:13;;;;;;;;;;;;;;;20.58;85.54;99842.20;84808;1325;22589;-71
2022/08/16 00:36:22;;;;;;;18.50;11.80;;;;;;;20.52;85.63;99844.37;84740;1326;22611;-69
2022/08/16 00:38:31;;;;;;;13.00;11.90;;;;;;;20.50;85.81;99847.52;84802;1325;22611;-72
2022/08/16 00:40:43;;;;;;;14.30;12.60;;;;;;;20.47;85.85;99850.46;84791;1325;24303;-71
2022/08/16 00:42:52;;;;;;;15.50;10.60;;;;;;;20.44;86.01;99849.96;84792;1325;22678;-71
2022/08/16 00:45:06;;;;;;;11.70;10.60;;;;;;;20.41;85.84;99845.10;84798;1317;22609;-71
2022/08/16 00:47:16;;;;;;;15.90;11.40;;;;;;;20.36;85.96;99848.16;84760;1321;22838;-73
2022/08/16 00:49:25;;;;;;;12.30;11.20;;;;;;;20.32;85.91;99849.41;84833;1325;22573;-71
2022/08/16 00:51:33;;;;;;;13.20;11.60;;;;;;;20.27;85.72;99851.23;84765;1320;24191;-71
2022/08/16 00:53:42;;;;;;;13.90;11.60;;;;;;;20.25;86.08;99854.66;84821;1324;22725;-71
2022/08/16 00:55:53;;;;;;;13.20;12.00;;;;;;;20.21;86.29;99855.68;84769;1322;22586;-71
2022/08/16 00:58:02;;;;;;;13.00;11.70;;;;;;;20.19;86.47;99855.16;84781;1326;22835;-71
2022/08/16 01:00:16;;;;;;;12.90;11.80;;;;;;;20.16;86.80;99849.41;84731;1326;24222;-70
2022/08/16 01:02:25;;;;;;;14.00;12.70;;;;;;;20.14;86.80;99845.54;84825;1326;22598;-72
2022/08/16 01:04:34;;;;;;;13.80;12.50;;;;;;;20.12;86.90;99844.61;84780;1326;22592;-71
2022/08/16 01:06:43;;;;;;;12.80;11.60;;;;;;;20.09;87.13;99850.67;84794;1328;22721;-72
2022/08/16 01:08:55;;;;;;;14.10;12.40;;;;;;;20.09;87.52;99849.11;84755;1326;24274;-73
2022/08/16 01:11:04;;;;;;;14.10;12.80;;;;;;;20.12;87.68;99845.50;84800;1326;25289;-72
2022/08/16 01:13:14;;;;;;;14.90;13.50;;;;;;;20.16;87.98;99844.66;84783;1326;22671;-73
2022/08/16 01:15:25;;;;;;;13.70;12.50;;;;;;;20.16;87.94;99842.65;84777;1326;23878;-72
2022/08/16 01:17:34;;;;;;;13.30;12.10;;;;;;;20.18;88.33;99842.52;84748;1326;22601;-71
2022/08/16 01:19:46;;;;;;;14.70;12.80;;;;;;;20.22;88.57;99844.11;84756;1327;25295;-71
2022/08/16 01:21:59;;;;;;;13.70;12.40;;;;;;;20.26;88.60;99844.27;84743;1327;25296;-73
2022/08/16 01:24:19;;;;;;;13.70;12.40;;;;;;;20.28;88.47;99844.07;84776;1329;22626;-72
2022/08/16 01:26:29;;;;;;;14.90;12.50;;;;;;;20.29;88.52;99840.97;84727;1326;22593;-71
2022/08/16 01:28:38;;;;;;;14.00;12.70;;;;;;;20.30;88.58;99840.56;84786;1326;22606;-72
2022/08/16 01:30:51;;;;;;;12.80;11.70;;;;;;;20.29;88.46;99840.30;84767;1325;23851;-73
2022/08/16 01:33:02;;;;;;;13.10;11.90;;;;;;;20.27;88.28;99838.86;84758;1326;22617;-72
2022/08/16 01:35:14;;;;;;;13.00;11.90;;;;;;;20.25;88.13;99835.84;84752;1326;22578;-72
2022/08/16 01:37:23;;;;;;;16.30;12.20;;;;;;;20.24;87.98;99836.34;84752;1326;22872;-72
2022/08/16 01:39:32;;;;;;;13.70;12.20;;;;;;;20.22;88.08;99830.98;84767;1330;25294;-71
2022/08/16 01:41:40;;;;;;;16.70;12.80;;;;;;;20.21;88.19;99832.02;84728;1326;25018;-70
2022/08/16 01:43:49;;;;;;;14.30;12.00;;;;;;;20.18;88.23;99826.34;84779;1326;22583;-70
2022/08/16 01:46:00;;;;;;;13.40;12.10;;;;;;;20.16;88.03;99826.73;84814;1327;22692;-72
2022/08/16 01:48:08;;;;;;;12.70;11.50;;;;;;;20.12;87.98;99823.55;84751;1326;24252;-72
2022/08/16 01:50:17;;;;;;;15.10;11.80;;;;;;;20.08;88.02;99821.52;84784;1326;22585;-72
2022/08/16 01:52:26;;;;;;;13.40;12.10;;;;;;;20.05;88.10;99820.57;84776;1327;22807;-71
2022/08/16 01:54:35;;;;;;;13.40;12.20;;;;;;;20.03;88.01;99818.45;84756;1323;24287;-71
2022/08/16 01:56:44;;;;;;;12.90;11.50;;;;;;;20.01;88.04;99819.51;84767;1326;24913;-72
2022/08/16 01:58:53;;;;;;;13.00;11.40;;;;;;;20.00;88.35;99817.82;84767;1326;22693;-72
2022/08/16 02:01:02;;;;;;;16.60;11.80;;;;;;;19.99;88.35;99814.92;84770;1325;22598;-70
2022/08/16 02:03:10;;;;;;;12.50;11.10;;;;;;;19.98;88.45;99812.89;84357;1326;534808;-71
2022/08/16 02:05:20;;;;;;;12.00;10.80;;;;;;;19.96;88.24;99810.08;84752;1326;25391;-71
2022/08/16 02:07:30;;;;;;;14.40;11.90;;;;;;;19.93;88.45;99808.20;84811;1322;22599;-72
2022/08/16 02:09:39;;;;;;;13.40;10.80;;;;;;;19.90;88.31;99804.38;84751;1326;22772;-71
2022/08/16 02:11:56;;;;;;;11.20;9.70;;;;;;;19.86;88.28;99802.58;84790;1327;24111;-72
2022/08/16 02:14:05;;;;;;;12.80;11.50;;;;;;;19.83;88.28;99803.56;84758;1326;24174;-72
2022/08/16 02:16:14;;;;;;;12.30;11.30;;;;;;;19.82;88.45;99800.67;84700;1329;25443;-72
2022/08/16 02:18:23;;;;;;;12.40;11.10;;;;;;;19.78;88.44;99799.15;84788;1326;22639;-72
2022/08/16 02:20:33;;;;;;;12.10;11.10;;;;;;;19.75;88.52;99792.36;84715;1320;22596;-72
2022/08/16 02:22:42;;;;;;;13.10;11.70;;;;;;;19.74;88.70;99794.61;84785;1326;22593;-72
2022/08/16 02:24:50;;;;;;;13.50;12.10;;;;;;;19.69;88.60;99792.91;84707;1328;22603;-71
2022/08/16 02:27:00;;;;;;;13.00;11.60;;;;;;;19.65;88.70;99792.56;84779;1326;22597;-72
2022/08/16 02:29:08;;;;;;;12.20;11.00;;;;;;;19.64;88.93;99791.79;84763;1326;25723;-72
2022/08/16 02:31:17;;;;;;;11.90;10.60;;;;;;;19.62;88.81;99791.20;84777;1324;24340;-71
2022/08/16 02:33:26;;;;;;;12.70;11.10;;;;;;;19.61;88.77;99791.84;84723;1325;23932;-71
2022/08/16 02:35:36;;;;;;;11.60;10.50;;;;;;;19.60;88.92;99792.63;84755;1327;23945;-70
2022/08/16 02:37:45;;;;;;;16.50;11.80;;;;;;;19.58;89.08;99802.10;84740;1326;22581;-72
2022/08/16 02:39:53;;;;;;;12.60;11.20;;;;;;;19.57;89.05;99800.72;84744;1321;22602;-72
2022/08/16 02:42:02;;;;;;;13.20;12.00;;;;;;;19.56;88.88;99801.16;84788;1326;22609;-72
2022/08/16 02:44:11;;;;;;;12.90;11.70;;;;;;;19.57;88.93;99797.78;84756;1324;22841;-72
2022/08/16 02:46:20;;;;;;;12.50;11.30;;;;;;;19.55;88.98;99793.66;84753;1325;24788;-72
2022/08/16 02:48:29;;;;;;;12.80;11.60;;;;;;;19.54;89.03;99794.84;84761;1325;22803;-73
2022/08/16 02:50:38;;;;;;;12.20;11.20;;;;;;;19.53;89.20;99792.50;84688;1330;22609;-69
2022/08/16 02:52:47;;;;;;;14.20;10.50;;;;;;;19.52;89.30;99793.09;84794;1327;24116;-70
2022/08/16 02:54:56;;;;;;;12.20;10.90;;;;;;;19.52;89.38;99792.05;84678;1320;24781;-71
2022/08/16 02:57:04;;;;;;;12.40;11.20;;;;;;;19.51;89.23;99790.31;84799;1326;22656;-72
2022/08/16 02:59:13;;;;;;;12.00;10.60;;;;;;;19.52;89.24;99788.15;84761;1326;22679;-70
2022/08/16 03:01:24;;;;;;;12.80;11.60;;;;;;;19.52;89.34;99788.67;84746;1324;22979;-71
2022/08/16 03:03:35;;;;;;;12.80;10.90;;;;;;;19.51;89.34;99791.57;84807;1327;24311;-72
2022/08/16 03:05:45;;;;;;;12.20;11.00;;;;;;;19.48;89.23;99792.91;84746;1325;26482;-71
2022/08/16 03:07:52;;;;;;;;;;;;;;;19.46;89.45;99797.48;84731;1329;22586;-71
2022/08/16 03:10:00;;;;;;;12.30;11.00;;;;;;;19.42;89.78;99797.99;84785;1327;22587;-72
2022/08/16 03:12:09;;;;;;;11.50;10.50;;;;;;;19.43;89.75;99801.29;84732;1325;25287;-73
2022/08/16 03:14:18;;;;;;;12.20;10.90;;;;;;;19.43;89.77;99803.02;84756;1327;24947;-73
2022/08/16 03:16:27;;;;;;;13.90;11.80;;;;;;;19.42;89.75;99797.30;84745;1325;22588;-72
2022/08/16 03:18:37;;;;;;;13.80;11.60;;;;;;;19.42;89.87;99793.02;84756;1325;22793;-71
2022/08/16 03:20:45;;;;;;;13.90;11.90;;;;;;;19.41;89.86;99794.68;84751;1326;22592;-71
2022/08/16 03:22:54;;;;;;;12.40;11.20;;;;;;;19.42;90.02;99798.86;84760;1321;22859;-71
2022/08/16 03:25:04;;;;;;;13.50;11.50;;;;;;;19.41;89.99;99799.85;84734;1326;22598;-72
2022/08/16 03:27:13;;;;;;;13.30;11.60;;;;;;;19.39;89.73;99797.88;84747;1326;22607;-72
2022/08/16 03:29:22;;;;;;;12.70;11.50;;;;;;;19.37;89.68;99798.04;84704;1329;25357;-70
2022/08/16 03:31:30;;;;;;;14.20;11.80;;;;;;;19.32;89.72;99802.66;84760;1326;22635;-71
2022/08/16 03:33:39;;;;;;;12.50;11.30;;;;;;;19.29;89.83;99813.02;84694;1325;24151;-72
2022/08/16 03:35:48;;;;;;;12.60;11.40;;;;;;;19.27;89.88;99811.78;84776;1326;22597;-73
2022/08/16 03:37:59;;;;;;;13.90;11.70;;;;;;;19.25;89.83;99816.05;84758;1326;25257;-72
2022/08/16 03:40:10;;;;;;;12.90;11.70;;;;;;;19.23;89.90;99817.22;84750;1326;23957;-72
2022/08/16 03:42:19;;;;;;;13.30;12.10;;;;;;;19.24;90.13;99821.91;84765;1327;23915;-71
2022/08/16 03:44:28;;;;;;;13.40;12.00;;;;;;;19.25;90.42;99822.34;84735;1325;22584;-71
2022/08/16 03:46:36;;;;;;;15.10;12.90;;;;;;;19.27;90.54;99822.80;84785;1325;23045;-73
2022/08/16 03:48:46;;;;;;;14.20;12.70;;;;;;;19.26;90.53;99818.02;84696;1324;22842;-72
2022/08/16 03:50:56;;;;;;;12.60;11.40;;;;;;;19.26;90.45;99816.31;84779;1326;22580;-72
2022/08/16 03:53:05;;;;;;;14.50;11.70;;;;;;;19.26;90.55;99816.84;84748;1321;22605;-72
2022/08/16 03:55:14;;;;;;;14.50;13.00;;;;;;;19.26;90.65;99821.61;84759;1325;22609;-72
2022/08/16 03:57:22;;;;;;;20.30;13.30;;;;;;;19.27;90.79;99824.73;84792;1327;22939;-71
2022/08/16 03:59:54;;;;;;;17.00;12.80;;;;;;;19.27;90.77;99826.27;84743;1325;25632;-71
2022/08/16 04:02:03;;;;;;;17.30;11.90;;;;;;;19.26;90.98;99829.17;84767;1327;22600;-71
2022/08/16 04:04:12;;;;;;;14.10;12.70;;;;;;;19.27;91.04;99830.49;84755;1326;22589;-71
2022/08/16 04:06:21;;;;;;;13.70;12.40;;;;;;;19.28;90.87;99828.70;84751;1325;25435;-71
2022/08/16 04:08:30;;;;;;;14.80;13.40;;;;;;;19.30;91.16;99828.70;84755;1325;22584;-72
2022/08/16 04:10:38;;;;;;;15.50;13.30;;;;;;;19.31;91.08;99827.52;84679;1326;23919;-72
2022/08/16 04:12:47;;;;;;;16.50;12.90;;;;;;;19.34;91.15;99828.73;84761;1325;22591;-71
2022/08/16 04:14:56;;;;;;;15.30;13.70;;;;;;;19.37;91.55;99826.55;84721;1325;22595;-71
2022/08/16 04:17:05;;;;;;;17.80;14.40;;;;;;;19.41;91.74;99827.23;84760;1326;22710;-71
2022/08/16 04:19:14;;;;;;;15.70;14.10;;;;;;;19.47;91.91;99829.73;84765;1326;22835;-72
2022/08/16 04:21:23;;;;;;;17.60;13.00;;;;;;;19.52;92.04;99830.95;84754;1326;25404;-72
2022/08/16 04:23:32;;;;;;;15.70;13.40;;;;;;;19.58;92.23;99833.79;84762;1326;23923;-72
2022/08/16 04:25:40;;;;;;;16.30;14.50;;;;;;;19.65;92.29;99838.04;84747;1326;23037;-72
2022/08/16 04:27:49;;;;;;;16.80;14.00;;;;;;;19.73;92.80;99841.41;84755;1326;22588;-73
2022/08/16 04:29:58;;;;;;;17.00;14.40;;;;;;;19.83;93.01;99833.43;84751;1326;24221;-73
2022/08/16 04:32:07;;;;;;;19.50;14.60;;;;;;;19.94;93.12;99838.05;84779;1327;22593;-72
2022/08/16 04:34:16;;;;;;;17.90;13.70;;;;;;;20.03;93.19;99837.23;84773;1326;22577;-71
2022/08/16 04:36:26;;;;;;;17.10;14.20;;;;;;;20.13;93.00;99834.63;84779;1326;22597;-73
2022/08/16 04:38:35;;;;;;;16.00;14.40;;;;;;;20.23;92.90;99838.20;84769;1325;22849;-72
2022/08/16 04:40:43;;;;;;;18.10;14.60;;;;;;;20.32;92.87;99836.35;84773;1325;22794;-71
2022/08/16 04:42:52;;;;;;;17.80;15.10;;;;;;;20.41;92.80;99843.15;84746;1325;22598;-72
2022/08/16 04:45:03;;;;;;;20.00;14.60;;;;;;;20.50;92.54;99839.61;84751;1322;24360;-73
2022/08/16 04:47:12;;;;;;;15.60;14.00;;;;;;;20.55;92.21;99841.77;84756;1327;24364;-73
2022/08/16 04:49:21;;;;;;;16.20;14.50;;;;;;;20.59;91.97;99837.87;84772;1326;22664;-72
2022/08/16 04:51:30;;;;;;;15.90;14.10;;;;;;;20.65;91.71;99837.06;84758;1326;22848;-72
2022/08/16 04:53:39;;;;;;;18.30;15.30;;;;;;;20.69;91.58;99835.63;84730;1326;25327;-71
2022/08/16 04:55:47;;;;;;;15.40;13.90;;;;;;;20.72;91.31;99835.87;84699;1329;22603;-73
2022/08/16 04:57:57;;;;;;;14.20;12.80;;;;;;;20.75;91.23;99837.16;84787;1326;24023;-72
2022/08/16 05:00:10;;;;;;;15.20;13.60;;;;;;;20.80;91.02;99836.42;84782;1325;24963;-71
2022/08/16 05:02:19;;;;;;;14.40;12.90;;;;;;;20.84;91.03;99841.50;84796;1322;22609;-72
2022/08/16 05:04:28;;;;;;;15.60;13.80;;;;;;;20.89;91.00;99839.00;84768;1326;22732;-72
2022/08/16 05:06:36;;;;;;;16.50;14.70;;;;;;;20.92;90.88;99838.27;84771;1326;22576;-72
2022/08/16 05:08:45;;;;;;;15.30;13.10;;;;;;;20.96;90.98;99839.89;84752;1330;22622;-71
2022/08/16 05:10:54;;;;;;;14.20;12.80;;;;;;;21.01;90.99;99843.93;84750;1326;25255;-73
2022/08/16 05:13:04;;;;;;;15.10;13.40;;;;;;;21.04;90.85;99843.73;84776;1325;22582;-72
2022/08/16 05:15:14;;;;;;;14.20;12.90;;;;;;;21.10;90.96;99849.98;84729;1326;22642;-72
2022/08/16 05:17:23;;;;;;;15.20;13.20;;;;;;;21.16;90.68;99848.79;84818;1326;22587;-72
2022/08/16 05:19:31;;;;;;;15.90;13.90;;;;;;;21.22;90.59;99848.03;84762;1326;22611;-72
2022/08/16 05:21:40;;;;;;;15.80;13.90;;;;;;;21.27;90.47;99850.53;84753;1328;22603;-72
2022/08/16 05:23:49;;;;;;;14.90;13.40;;;;;;;21.35;90.52;99848.49;84732;1326;23349;-73
2022/08/16 05:25:58;;;;;;;18.20;13.50;;;;;;;21.43;90.44;99850.41;84777;1326;22581;-72
2022/08/16 05:28:09;;;;;;;14.90;13.40;;;;;;;21.53;90.34;99848.58;84801;1326;22699;-73
2022/08/16 05:30:18;;;;;;;14.80;13.30;;;;;;;21.66;90.20;99853.45;84750;1322;22573;-73
2022/08/16 05:32:28;;;;;;;13.80;12.40;;;;;;;21.78;89.83;99851.19;84689;1329;22855;-72
2022/08/16 05:34:37;;;;;;;13.30;12.00;;;;;;;21.92;89.67;99852.75;84796;1326;22783;-72
2022/08/16 05:36:46;;;;;;;13.80;12.50;;;;;;;22.06;89.32;99852.33;84755;1327;26502;-72
2022/08/16 05:38:55;;;;;;;18.10;12.50;;;;;;;22.19;88.56;99855.43;84767;1326;23934;-73
2022/08/16 05:41:04;;;;;;;13.40;12.00;;;;;;;22.28;87.95;99849.43;84791;1326;23977;-72
2022/08/16 05:43:13;;;;;;;13.70;12.40;;;;;;;22.34;87.02;99853.05;84780;1325;24315;-71
2022/08/16 05:45:23;;;;;;;13.40;12.00;;;;;;;22.39;86.62;99851.73;84754;1326;25501;-73
2022/08/16 05:47:32;;;;;;;17.90;12.70;;;;;;;22.43;86.05;99856.30;84774;1326;23946;-71
2022/08/16 05:49:43;;;;;;;14.00;11.80;;;;;;;22.49;85.85;99853.30;84764;1326;24244;-70
2022/08/16 05:51:53;;;;;;;13.70;11.40;;;;;;;22.54;85.40;99854.04;84758;1326;22647;-71
2022/08/16 05:54:02;;;;;;;13.40;12.00;;;;;;;22.61;85.18;99848.89;84706;1324;22712;-72
2022/08/16 05:56:12;;;;;;;14.10;12.70;;;;;;;22.67;84.74;99849.54;84797;1326;25337;-73
2022/08/16 05:58:21;;;;;;;21.60;15.50;;;;;;;22.74;84.57;99849.58;84746;1326;22810;-72
2022/08/16 06:00:30;;;;;;;16.30;14.10;;;;;;;22.82;84.06;99852.90;84764;1326;24222;-73
2022/08/16 06:02:38;;;;;;;13.50;12.10;;;;;;;22.87;83.51;99852.91;84686;1327;22606;-72
2022/08/16 06:04:47;;;;;;;14.10;11.40;;;;;;;22.90;83.10;99851.56;84786;1325;22626;-72
2022/08/16 06:06:56;;;;;;;14.80;11.70;;;;;;;22.93;82.72;99848.45;84771;1326;22587;-72
2022/08/16 06:09:05;;;;;;;13.60;12.20;;;;;;;22.96;82.17;99849.99;84791;1326;25359;-71
2022/08/16 06:11:13;;;;;;;16.90;13.70;;;;;;;22.96;81.43;99851.56;84697;1327;22590;-70
2022/08/16 06:13:22;;;;;;;16.80;11.50;;;;;;;22.94;81.08;99853.86;84786;1329;24158;-72
2022/08/16 06:15:31;;;;;;;12.90;11.70;;;;;;;22.93;80.79;99854.55;84665;1326;22623;-72
2022/08/16 06:17:39;;;;;;;19.40;17.50;;;;;;;22.94;80.82;99853.20;84784;1322;24258;-73
2022/08/16 06:19:48;;;;;;;14.70;13.20;;;;;;;22.94;80.65;99855.80;84747;1322;22587;-72
2022/08/16 06:21:57;;;;;;;23.20;14.40;;;;;;;22.94;80.53;99852.80;84790;1325;22584;-71
2022/08/16 06:24:06;;;;;;;19.60;15.70;;;;;;;22.95;80.39;99850.97;84743;1320;23273;-74
2022/08/16 06:26:14;;;;;;;21.50;16.20;;;;;;;22.95;80.37;99853.64;84754;1327;22596;-73
2022/08/16 06:28:23;;;;;;;14.90;13.40;;;;;;;22.96;80.33;99857.44;84753;1326;22593;-73
2022/08/16 06:30:32;;;;;;;19.80;14.70;;;;;;;22.98;80.12;99859.32;84794;1327;24144;-72
2022/08/16 06:32:40;;;;;;;23.40;16.80;;;;;;;22.99;80.05;99859.82;84666;1331;25953;-72
2022/08/16 06:34:49;;;;;;;23.30;18.80;;;;;;;23.01;79.87;99857.89;84748;1323;22706;-72
2022/08/16 06:37:00;;;;;;;20.60;18.20;;;;;;;23.02;80.00;99859.66;84762;1327;22590;-72
2022/08/16 06:39:08;;;;;;;32.40;23.70;;;;;;;23.07;80.12;99857.70;84712;1326;22642;-72
2022/08/16 06:41:16;;;;;;;30.60;20.60;;;;;;;23.15;79.93;99862.87;84739;1326;22639;-72
2022/08/16 06:43:25;;;;;;;20.00;15.10;;;;;;;23.23;79.79;99860.80;84655;1320;23066;-73
2022/08/16 06:45:36;;;;;;;13.10;11.70;;;;;;;23.32;79.31;99864.00;84763;1322;22806;-72
2022/08/16 06:47:45;;;;;;;14.10;12.80;;;;;;;23.42;79.07;99867.29;84778;1327;22737;-72
2022/08/16 06:49:54;;;;;;;15.20;11.90;;;;;;;23.49;78.58;99864.62;84735;1327;24331;-72
2022/08/16 06:52:03;;;;;;;17.60;15.60;;;;;;;23.56;78.67;99865.11;84689;1327;23157;-72
2022/08/16 06:54:12;;;;;;;39.30;25.90;;;;;;;23.65;78.73;99864.79;84758;1326;25017;-72
2022/08/16 06:56:21;;;;;;;24.80;18.50;;;;;;;23.74;78.64;99865.52;84740;1327;22695;-73
2022/08/16 06:58:30;;;;;;;27.10;17.40;;;;;;;23.83;78.21;99866.73;84717;1326;26421;-72
2022/08/16 07:00:39;;;;;;;16.20;14.30;;;;;;;23.90;77.63;99868.83;84744;1326;22584;-72
2022/08/16 07:02:47;;;;;;;;;;;;;;;23.97;77.46;99870.64;84763;1326;22573;-72
2022/08/16 07:04:56;;;;;;;39.00;27.80;;;;;;;24.06;77.15;99874.20;84750;1326;22611;-71
2022/08/16 07:07:05;;;;;;;16.80;14.00;;;;;;;24.16;77.16;99874.90;84748;1321;22617;-70
2022/08/16 07:09:13;;;;;;;;;;;;;;;24.25;76.66;99870.48;84730;1322;22642;-71
2022/08/16 07:11:21;;;;;;;16.50;12.60;;;;;;;24.33;76.24;99867.52;84734;1326;22597;-71
2022/08/16 07:13:31;;;;;;;18.40;12.10;;;;;;;24.45;75.80;99867.01;84786;1311;22555;-72
2022/08/16 07:15:40;;;;;;;16.00;11.40;;;;;;;24.55;75.33;99863.41;84740;1320;25467;-72
2022/08/16 07:17:49;;;;;;;14.80;11.30;;;;;;;24.75;75.58;99862.75;84652;1328;24358;-71
2022/08/16 07:19:58;;;;;;;19.30;13.60;;;;;;;25.00;74.87;99861.52;84736;1325;22608;-71
2022/08/16 07:22:06;;;;;;;13.60;12.00;;;;;;;25.44;74.86;99858.38;84755;1326;22585;-71
2022/08/16 07:24:16;;;;;;;14.90;10.90;;;;;;;26.09;73.70;99861.48;84743;1324;22859;-71
2022/08/16 07:26:26;;;;;;;11.20;10.20;;;;;;;26.74;72.42;99862.33;84643;1328;22604;-71
2022/08/16 07:28:35;;;;;;;12.50;10.30;;;;;;;27.39;70.92;99859.89;84745;1325;22594;-72
2022/08/16 07:30:44;;;;;;;17.80;11.60;;;;;;;28.08;69.26;99861.81;84753;1327;25286;-71
2022/08/16 07:32:54;;;;;;;13.40;9.70;;;;;;;28.71;66.33;99861.80;84740;1321;22590;-70
2022/08/16 07:35:03;;;;;;;19.00;11.80;;;;;;;29.15;64.81;99856.27;84745;1325;22600;-70
2022/08/16 07:37:12;;;;;;;17.20;12.40;;;;;;;29.63;63.56;99853.15;84740;1326;22804;-71
2022/08/16 07:39:21;;;;;;;11.50;10.40;;;;;;;30.13;61.48;99846.17;84706;1329;22614;-73
2022/08/16 07:41:29;;;;;;;13.80;9.80;;;;;;;30.60;59.67;99841.90;84770;1325;22652;-72
2022/08/16 07:43:38;;;;;;;14.30;8.80;;;;;;;31.15;58.82;99838.62;84747;1325;22844;-72
2022/08/16 07:45:48;;;;;;;15.30;9.20;;;;;;;31.67;57.87;99842.98;84766;1326;24856;-71
2022/08/16 07:47:57;;;;;;;28.80;18.00;;;;;;;32.41;56.89;99844.56;84749;1321;22649;-71
2022/08/16 07:50:06;;;;;;;12.60;10.40;;;;;;;33.17;53.48;99846.04;84727;1326;22617;-71
2022/08/16 07:52:15;;;;;;;16.00;9.50;;;;;;;33.71;51.22;99841.77;84784;1325;22583;-72
2022/08/16 07:54:24;;;;;;;14.00;9.50;;;;;;;34.01;49.42;99846.71;84740;1325;22607;-73
2022/08/16 07:56:32;;;;;;;10.30;8.80;;;;;;;33.83;48.93;99841.59;84756;1326;24360;-72
2022/08/16 07:58:41;;;;;;;11.10;9.30;;;;;;;33.61;49.53;99847.64;84748;1327;26577;-72
2022/08/16 08:00:49;;;;;;;8.80;8.00;;;;;;;33.41;49.48;99843.85;84749;1325;23907;-72
2022/08/16 08:03:00;;;;;;;12.00;8.70;;;;;;;33.26;50.00;99842.16;84750;1326;25238;-70
2022/08/16 08:05:10;;;;;;;12.30;9.10;;;;;;;33.30;49.48;99837.45;84685;1327;22619;-70
2022/08/16 08:07:18;;;;;;;10.00;8.20;;;;;;;33.23;49.10;99841.50;84801;1326;22917;-70
2022/08/16 08:09:27;;;;;;;13.00;10.00;;;;;;;33.10;48.63;99843.59;84766;1326;22617;-71
2022/08/16 08:11:36;;;;;;;14.20;9.00;;;;;;;32.91;48.70;99847.73;84797;1327;22589;-72
2022/08/16 08:13:45;;;;;;;13.80;9.00;;;;;;;32.74;48.52;99849.65;84768;1326;22645;-72
2022/08/16 08:15:54;;;;;;;14.40;8.70;;;;;;;32.68;48.73;99852.70;84803;1326;22582;-72
2022/08/16 08:18:03;;;;;;;14.00;8.30;;;;;;;32.65;48.92;99853.63;84751;1327;22611;-70
2022/08/16 08:20:14;;;;;;;9.90;8.90;;;;;;;32.55;49.02;99852.04;84701;1328;25340;-72
2022/08/16 08:22:23;;;;;;;15.20;9.60;;;;;;;32.84;48.97;99856.79;84826;1325;24242;-72
2022/08/16 08:24:31;;;;;;;11.30;9.10;;;;;;;32.94;48.98;99851.15;84748;1326;23983;-72
2022/08/16 08:26:40;;;;;;;10.70;8.70;;;;;;;32.87;48.27;99850.25;84764;1326;22605;-71
2022/08/16 08:28:49;;;;;;;9.80;8.90;;;;;;;32.69;48.02;99853.64;84781;1326;22744;-71
2022/08/16 08:30:58;;;;;;;13.30;10.10;;;;;;;32.35;47.11;99852.70;84788;1324;22602;-73
2022/08/16 08:33:07;;;;;;;12.60;9.90;;;;;;;32.05;47.75;99856.55;84763;1326;22580;-72
2022/08/16 08:35:16;;;;;;;13.80;9.90;;;;;;;31.90;47.85;99855.86;84702;1328;22750;-73
2022/08/16 08:37:26;;;;;;;17.50;13.50;;;;;;;31.78;47.96;99858.17;84710;1328;23054;-71
2022/08/16 08:39:37;;;;;;;12.10;9.70;;;;;;;31.74;48.63;99859.08;84787;1326;22606;-71
2022/08/16 08:41:46;;;;;;;12.60;9.40;;;;;;;31.61;48.76;99863.41;84757;1326;23953;-71
2022/08/16 08:43:55;;;;;;;21.50;13.00;;;;;;;31.46;49.33;99862.90;84758;1326;24068;-71
2022/08/16 08:46:04;;;;;;;17.50;12.40;;;;;;;31.42;49.79;99866.59;84783;1327;22589;-73
2022/08/16 08:48:12;;;;;;;23.60;11.50;;;;;;;31.39;49.45;99866.67;84768;1321;22587;-72
2022/08/16 08:50:22;;;;;;;28.00;13.30;;;;;;;31.36;49.76;99867.95;84750;1326;22584;-71
2022/08/16 08:52:30;;;;;;;27.80;11.80;;;;;;;31.32;49.39;99870.49;84748;1326;22809;-70
2022/08/16 08:54:39;;;;;;;40.80;14.20;;;;;;;31.30;48.60;99871.95;84731;1327;22718;-71
2022/08/16 08:56:48;;;;;;;50.70;20.20;;;;;;;31.30;49.13;99873.11;84771;1325;22616;-71
2022/08/16 08:58:57;;;;;;;42.10;16.50;;;;;;;31.38;48.63;99871.12;84795;1325;23898;-72
2022/08/16 09:01:06;;;;;;;24.30;13.10;;;;;;;31.51;48.66;99869.89;84743;1326;22606;-72
2022/08/16 09:03:15;;;;;;;19.80;12.10;;;;;;;31.68;49.37;99869.95;84704;1325;22588;-73
2022/08/16 09:05:26;;;;;;;41.40;14.40;;;;;;;31.82;48.43;99866.27;84772;1326;22733;-72
2022/08/16 09:07:36;;;;;;;33.70;11.80;;;;;;;32.00;48.17;99869.63;84785;1325;23920;-73
2022/08/16 09:09:45;;;;;;;65.10;15.20;;;;;;;32.38;47.17;99868.73;84709;1324;22590;-72
2022/08/16 09:11:54;;;;;;;22.20;11.90;;;;;;;32.85;46.77;99872.93;84830;1325;22662;-72
2022/08/16 09:14:01;;;;;;;;;;;;;;;33.52;45.20;99866.80;84781;1326;22645;-72
2022/08/16 09:16:10;;;;;;;12.70;10.00;;;;;;;34.16;44.14;99865.40;84708;1327;22607;-71
2022/08/16 09:18:18;;;;;;;11.40;10.20;;;;;;;34.90;43.44;99862.86;84754;1326;25515;-73
2022/08/16 09:20:30;;;;;;;9.20;8.30;;;;;;;35.60;42.96;99862.20;84692;1328;22602;-73
2022/08/16 09:22:39;;;;;;;13.20;10.50;;;;;;;36.18;41.63;99863.89;84811;1325;22581;-72
2022/08/16 09:24:48;;;;;;;27.10;21.30;;;;;;;36.56;39.30;99872.71;84744;1326;22595;-72
2022/08/16 09:26:57;;;;;;;17.00;13.60;;;;;;;36.87;38.04;99875.46;84777;1323;22593;-72
2022/08/16 09:29:06;;;;;;;16.80;11.00;;;;;;;36.99;37.58;99877.73;84769;1326;22590;-71
2022/08/16 09:31:15;;;;;;;21.70;10.90;;;;;;;36.99;38.15;99876.15;84796;1323;22871;-71
2022/08/16 09:33:23;;;;;;;;;;;;;;;37.13;38.02;99872.66;84757;1325;24243;-71
2022/08/16 09:35:31;;;;;;;12.90;9.50;;;;;;;37.17;37.13;99872.72;84829;1326;25445;-71
2022/08/16 09:37:41;;;;;;;18.00;13.60;;;;;;;37.12;37.28;99872.70;84696;1328;22986;-70
2022/08/16 09:39:50;;;;;;;18.30;12.90;;;;;;;37.08;37.23;99867.92;84782;1326;22700;-70
2022/08/16 09:41:59;;;;;;;25.20;18.40;;;;;;;36.99;36.72;99870.69;84766;1326;22593;-71
2022/08/16 09:44:08;;;;;;;20.30;15.60;;;;;;;36.88;37.08;99871.45;84785;1326;22626;-71
2022/08/16 09:46:17;;;;;;;22.90;15.30;;;;;;;36.72;36.90;99876.36;84772;1325;22944;-72
2022/08/16 09:48:27;;;;;;;18.40;14.90;;;;;;;36.47;36.85;99874.40;84715;1328;22656;-72
2022/08/16 09:50:38;;;;;;;11.30;9.50;;;;;;;36.29;37.10;99876.89;84782;1326;22673;-72
2022/08/16 09:52:47;;;;;;;10.50;9.30;;;;;;;36.07;37.40;99876.83;84743;1326;25301;-73
2022/08/16 09:54:56;;;;;;;9.70;8.50;;;;;;;35.99;37.53;99879.84;84768;1326;23940;-73
2022/08/16 09:57:05;;;;;;;8.80;7.80;;;;;;;35.83;37.11;99881.73;84711;1326;22603;-71